sensor_id;sensor_type;location;lat;lon;timestamp;pressure;altitude;pressure_sealevel;temperature;humidity
26487;BME280;14425;56.136;40.360;2023-04-22T00:00:00;99015.94;;;7.46;54.33
26487;BME280;14425;56.136;40.360;2023-04-22T00:02:26;99014.06;;;7.42;55.55
26487;BME280;14425;56.136;40.360;2023-04-22T00:04:57;99018.50;;;7.23;55.36
26487;BME280;14425;56.136;40.360;2023-04-22T00:07:23;99014.28;;;7.25;54.91
26487;BME280;14425;56.136;40.360;2023-04-22T00:09:48;99011.25;;;7.35;55.51
26487;BME280;14425;56.136;40.360;2023-04-22T00:12:14;99014.78;;;7.37;54.73
26487;BME280;14425;56.136;40.360;2023-04-22T00:14:40;99014.94;;;7.19;55.88
26487;BME280;14425;56.136;40.360;2023-04-22T00:17:05;99014.63;;;7.12;56.17
26487;BME280;14425;56.136;40.360;2023-04-22T00:19:32;99019.28;;;6.99;56.17
26487;BME280;14425;56.136;40.360;2023-04-22T00:21:58;99024.88;;;6.89;57.18
26487;BME280;14425;56.136;40.360;2023-04-22T00:24:23;99018.72;;;6.85;56.82
26487;BME280;14425;56.136;40.360;2023-04-22T00:26:49;99016.47;;;6.93;56.41
26487;BME280;14425;56.136;40.360;2023-04-22T00:29:14;99027.38;;;6.88;57.10
26487;BME280;14425;56.136;40.360;2023-04-22T00:31:40;99017.19;;;6.89;56.90
26487;BME280;14425;56.136;40.360;2023-04-22T00:34:05;99018.78;;;6.87;56.95
26487;BME280;14425;56.136;40.360;2023-04-22T00:36:31;99016.13;;;6.84;57.19
26487;BME280;14425;56.136;40.360;2023-04-22T00:38:57;99015.69;;;6.73;57.62
26487;BME280;14425;56.136;40.360;2023-04-22T00:41:23;99013.75;;;6.68;58.32
26487;BME280;14425;56.136;40.360;2023-04-22T00:43:49;99013.13;;;6.73;58.39
26487;BME280;14425;56.136;40.360;2023-04-22T00:46:16;99011.28;;;6.71;58.36
26487;BME280;14425;56.136;40.360;2023-04-22T00:48:42;99014.13;;;6.77;58.34
26487;BME280;14425;56.136;40.360;2023-04-22T00:51:08;99018.84;;;6.89;57.88
26487;BME280;14425;56.136;40.360;2023-04-22T00:53:33;99016.81;;;6.80;57.84
26487;BME280;14425;56.136;40.360;2023-04-22T00:55:59;99019.56;;;6.63;58.18
26487;BME280;14425;56.136;40.360;2023-04-22T00:58:27;99021.75;;;6.54;59.05
26487;BME280;14425;56.136;40.360;2023-04-22T01:00:53;99019.72;;;6.47;59.09
26487;BME280;14425;56.136;40.360;2023-04-22T01:03:19;99013.50;;;6.61;58.32
26487;BME280;14425;56.136;40.360;2023-04-22T01:05:48;99013.38;;;6.58;59.13
26487;BME280;14425;56.136;40.360;2023-04-22T01:08:14;99005.50;;;6.54;59.09
26487;BME280;14425;56.136;40.360;2023-04-22T01:10:41;99010.00;;;6.59;59.36
26487;BME280;14425;56.136;40.360;2023-04-22T01:13:07;99005.28;;;6.49;59.23
26487;BME280;14425;56.136;40.360;2023-04-22T01:15:33;99004.88;;;6.38;59.69
26487;BME280;14425;56.136;40.360;2023-04-22T01:17:59;99004.50;;;6.50;59.35
26487;BME280;14425;56.136;40.360;2023-04-22T01:20:28;99015.59;;;6.51;59.46
26487;BME280;14425;56.136;40.360;2023-04-22T01:22:54;99008.75;;;6.50;59.44
26487;BME280;14425;56.136;40.360;2023-04-22T01:25:22;99005.72;;;6.39;59.95
26487;BME280;14425;56.136;40.360;2023-04-22T01:27:48;99011.25;;;6.48;60.25
26487;BME280;14425;56.136;40.360;2023-04-22T01:30:14;99011.25;;;6.69;59.21
26487;BME280;14425;56.136;40.360;2023-04-22T01:32:40;99012.03;;;6.47;60.59
26487;BME280;14425;56.136;40.360;2023-04-22T01:35:06;99008.25;;;6.58;60.48
26487;BME280;14425;56.136;40.360;2023-04-22T01:37:33;99000.88;;;6.66;60.41
26487;BME280;14425;56.136;40.360;2023-04-22T01:39:59;99008.16;;;6.36;60.60
26487;BME280;14425;56.136;40.360;2023-04-22T01:42:25;99005.78;;;6.19;61.83
26487;BME280;14425;56.136;40.360;2023-04-22T01:44:51;99003.09;;;6.37;62.26
26487;BME280;14425;56.136;40.360;2023-04-22T01:47:17;99006.94;;;6.47;61.27
26487;BME280;14425;56.136;40.360;2023-04-22T01:49:42;99004.06;;;6.60;60.63
26487;BME280;14425;56.136;40.360;2023-04-22T01:52:08;99008.44;;;6.01;62.48
26487;BME280;14425;56.136;40.360;2023-04-22T01:54:34;99015.59;;;5.90;62.90
26487;BME280;14425;56.136;40.360;2023-04-22T01:57:07;99019.59;;;6.03;63.37
26487;BME280;14425;56.136;40.360;2023-04-22T01:59:33;99015.56;;;6.08;63.54
26487;BME280;14425;56.136;40.360;2023-04-22T02:01:59;99014.72;;;5.90;64.35
26487;BME280;14425;56.136;40.360;2023-04-22T02:04:24;99008.84;;;5.92;65.34
26487;BME280;14425;56.136;40.360;2023-04-22T02:06:50;99009.91;;;5.96;64.86
26487;BME280;14425;56.136;40.360;2023-04-22T02:09:15;99008.53;;;6.24;63.16
26487;BME280;14425;56.136;40.360;2023-04-22T02:11:41;99006.72;;;6.21;63.11
26487;BME280;14425;56.136;40.360;2023-04-22T02:14:07;98995.09;;;5.69;64.69
26487;BME280;14425;56.136;40.360;2023-04-22T02:16:33;99005.44;;;5.53;66.43
26487;BME280;14425;56.136;40.360;2023-04-22T02:18:58;99011.03;;;5.83;65.95
26487;BME280;14425;56.136;40.360;2023-04-22T02:21:27;98999.72;;;6.17;64.37
26487;BME280;14425;56.136;40.360;2023-04-22T02:23:52;99016.50;;;5.91;64.23
26487;BME280;14425;56.136;40.360;2023-04-22T02:26:18;99010.19;;;5.84;65.20
26487;BME280;14425;56.136;40.360;2023-04-22T02:28:43;99007.25;;;5.55;66.18
26487;BME280;14425;56.136;40.360;2023-04-22T02:31:09;99017.78;;;6.01;65.03
26487;BME280;14425;56.136;40.360;2023-04-22T02:33:34;99017.13;;;5.67;65.35
26487;BME280;14425;56.136;40.360;2023-04-22T02:36:00;99016.47;;;5.71;65.88
26487;BME280;14425;56.136;40.360;2023-04-22T02:38:26;99015.78;;;5.56;66.13
26487;BME280;14425;56.136;40.360;2023-04-22T02:40:51;99014.25;;;5.79;66.09
26487;BME280;14425;56.136;40.360;2023-04-22T02:43:17;99016.50;;;5.91;65.47
26487;BME280;14425;56.136;40.360;2023-04-22T02:45:42;99014.00;;;5.73;65.54
26487;BME280;14425;56.136;40.360;2023-04-22T02:48:08;99018.03;;;5.87;65.41
26487;BME280;14425;56.136;40.360;2023-04-22T02:50:34;99017.47;;;6.13;63.23
26487;BME280;14425;56.136;40.360;2023-04-22T02:52:59;99007.84;;;6.28;63.02
26487;BME280;14425;56.136;40.360;2023-04-22T02:55:25;99014.59;;;6.26;62.46
26487;BME280;14425;56.136;40.360;2023-04-22T02:57:51;99021.09;;;6.39;62.73
26487;BME280;14425;56.136;40.360;2023-04-22T03:00:16;99021.16;;;6.19;62.80
26487;BME280;14425;56.136;40.360;2023-04-22T03:02:42;99020.22;;;5.98;63.96
26487;BME280;14425;56.136;40.360;2023-04-22T03:05:08;99018.47;;;6.16;63.94
26487;BME280;14425;56.136;40.360;2023-04-22T03:07:34;99022.91;;;6.01;64.23
26487;BME280;14425;56.136;40.360;2023-04-22T03:10:00;99021.94;;;6.18;63.95
26487;BME280;14425;56.136;40.360;2023-04-22T03:12:25;99023.34;;;6.31;63.76
26487;BME280;14425;56.136;40.360;2023-04-22T03:14:51;99023.34;;;6.31;63.39
26487;BME280;14425;56.136;40.360;2023-04-22T03:17:17;99031.72;;;6.07;63.77
26487;BME280;14425;56.136;40.360;2023-04-22T03:19:42;99021.84;;;5.78;65.26
26487;BME280;14425;56.136;40.360;2023-04-22T03:22:08;99028.78;;;5.98;64.56
26487;BME280;14425;56.136;40.360;2023-04-22T03:24:33;99014.75;;;6.09;63.77
26487;BME280;14425;56.136;40.360;2023-04-22T03:26:59;99023.94;;;6.25;62.98
26487;BME280;14425;56.136;40.360;2023-04-22T03:29:24;99022.38;;;6.29;63.14
26487;BME280;14425;56.136;40.360;2023-04-22T03:31:50;99023.97;;;6.06;64.02
26487;BME280;14425;56.136;40.360;2023-04-22T03:34:15;99020.94;;;6.15;64.08
26487;BME280;14425;56.136;40.360;2023-04-22T03:36:41;99022.50;;;6.11;64.65
26487;BME280;14425;56.136;40.360;2023-04-22T03:39:07;99026.66;;;6.09;64.90
26487;BME280;14425;56.136;40.360;2023-04-22T03:41:32;99029.75;;;6.41;63.68
26487;BME280;14425;56.136;40.360;2023-04-22T03:43:58;99026.88;;;6.14;64.89
26487;BME280;14425;56.136;40.360;2023-04-22T03:46:23;99033.28;;;6.04;65.24
26487;BME280;14425;56.136;40.360;2023-04-22T03:48:49;99032.69;;;6.09;65.44
26487;BME280;14425;56.136;40.360;2023-04-22T03:51:14;99033.63;;;6.12;65.09
26487;BME280;14425;56.136;40.360;2023-04-22T03:53:40;99028.81;;;6.60;63.07
26487;BME280;14425;56.136;40.360;2023-04-22T03:56:05;99019.94;;;7.16;60.21
26487;BME280;14425;56.136;40.360;2023-04-22T03:58:31;99019.50;;;7.73;57.83
26487;BME280;14425;56.136;40.360;2023-04-22T04:00:56;99019.72;;;8.02;56.38
26487;BME280;14425;56.136;40.360;2023-04-22T04:03:22;99028.22;;;8.01;56.22
26487;BME280;14425;56.136;40.360;2023-04-22T04:05:47;99027.81;;;8.14;55.92
26487;BME280;14425;56.136;40.360;2023-04-22T04:08:13;99029.81;;;8.22;55.98
26487;BME280;14425;56.136;40.360;2023-04-22T04:10:40;99040.28;;;8.28;55.51
26487;BME280;14425;56.136;40.360;2023-04-22T04:13:06;99035.66;;;8.18;56.24
26487;BME280;14425;56.136;40.360;2023-04-22T04:15:32;99032.69;;;8.31;55.92
26487;BME280;14425;56.136;40.360;2023-04-22T04:17:59;99029.13;;;8.51;54.56
26487;BME280;14425;56.136;40.360;2023-04-22T04:20:25;99026.91;;;8.38;55.35
26487;BME280;14425;56.136;40.360;2023-04-22T04:22:51;99035.75;;;8.45;54.71
26487;BME280;14425;56.136;40.360;2023-04-22T04:25:17;99037.56;;;9.00;52.76
26487;BME280;14425;56.136;40.360;2023-04-22T04:27:42;99032.31;;;9.24;52.23
26487;BME280;14425;56.136;40.360;2023-04-22T04:30:08;99035.06;;;9.31;51.88
26487;BME280;14425;56.136;40.360;2023-04-22T04:32:34;99041.63;;;9.48;51.96
26487;BME280;14425;56.136;40.360;2023-04-22T04:35:00;99032.38;;;9.55;51.50
26487;BME280;14425;56.136;40.360;2023-04-22T04:37:26;99035.44;;;9.72;50.78
26487;BME280;14425;56.136;40.360;2023-04-22T04:39:52;99039.09;;;10.10;49.67
26487;BME280;14425;56.136;40.360;2023-04-22T04:42:18;99030.50;;;10.10;49.71
26487;BME280;14425;56.136;40.360;2023-04-22T04:44:44;99031.63;;;9.89;50.81
26487;BME280;14425;56.136;40.360;2023-04-22T04:47:11;99040.72;;;9.76;51.78
26487;BME280;14425;56.136;40.360;2023-04-22T04:49:39;99039.78;;;9.73;51.26
26487;BME280;14425;56.136;40.360;2023-04-22T04:52:05;99042.06;;;9.64;52.11
26487;BME280;14425;56.136;40.360;2023-04-22T04:54:34;99040.59;;;9.72;52.46
26487;BME280;14425;56.136;40.360;2023-04-22T04:57:00;99035.75;;;9.83;51.89
26487;BME280;14425;56.136;40.360;2023-04-22T04:59:26;99035.84;;;10.48;49.82
26487;BME280;14425;56.136;40.360;2023-04-22T05:01:52;99032.41;;;10.17;50.36
26487;BME280;14425;56.136;40.360;2023-04-22T05:04:18;99038.72;;;10.60;49.14
26487;BME280;14425;56.136;40.360;2023-04-22T05:06:43;99045.56;;;10.58;48.77
26487;BME280;14425;56.136;40.360;2023-04-22T05:09:09;99032.69;;;11.31;46.41
26487;BME280;14425;56.136;40.360;2023-04-22T05:11:34;99032.00;;;11.79;45.72
26487;BME280;14425;56.136;40.360;2023-04-22T05:14:01;99037.34;;;11.48;45.65
26487;BME280;14425;56.136;40.360;2023-04-22T05:16:27;99039.78;;;11.41;45.91
26487;BME280;14425;56.136;40.360;2023-04-22T05:18:53;99046.97;;;11.55;45.22
26487;BME280;14425;56.136;40.360;2023-04-22T05:21:18;99041.81;;;11.94;44.74
26487;BME280;14425;56.136;40.360;2023-04-22T05:23:44;99042.28;;;11.78;45.21
26487;BME280;14425;56.136;40.360;2023-04-22T05:26:12;99042.41;;;11.82;45.25
26487;BME280;14425;56.136;40.360;2023-04-22T05:28:37;99041.31;;;11.73;44.43
26487;BME280;14425;56.136;40.360;2023-04-22T05:31:03;99045.28;;;11.96;43.13
26487;BME280;14425;56.136;40.360;2023-04-22T05:33:28;99044.69;;;12.10;41.45
26487;BME280;14425;56.136;40.360;2023-04-22T05:35:54;99037.16;;;12.20;41.16
26487;BME280;14425;56.136;40.360;2023-04-22T05:38:20;99042.00;;;12.04;41.42
26487;BME280;14425;56.136;40.360;2023-04-22T05:40:45;99044.50;;;12.46;41.19
26487;BME280;14425;56.136;40.360;2023-04-22T05:43:11;99038.28;;;12.85;41.31
26487;BME280;14425;56.136;40.360;2023-04-22T05:45:37;99038.38;;;12.91;39.71
26487;BME280;14425;56.136;40.360;2023-04-22T05:48:02;99037.38;;;13.35;39.22
26487;BME280;14425;56.136;40.360;2023-04-22T05:50:28;99045.09;;;13.32;39.15
26487;BME280;14425;56.136;40.360;2023-04-22T05:52:53;99028.31;;;13.68;38.74
26487;BME280;14425;56.136;40.360;2023-04-22T05:55:19;99036.88;;;13.64;38.17
26487;BME280;14425;56.136;40.360;2023-04-22T05:57:46;99029.16;;;13.67;38.10
26487;BME280;14425;56.136;40.360;2023-04-22T06:00:12;99031.25;;;13.97;37.01
26487;BME280;14425;56.136;40.360;2023-04-22T06:02:38;99024.75;;;14.33;35.86
26487;BME280;14425;56.136;40.360;2023-04-22T06:05:03;99026.66;;;14.51;36.57
26487;BME280;14425;56.136;40.360;2023-04-22T06:07:30;99030.72;;;14.25;36.63
26487;BME280;14425;56.136;40.360;2023-04-22T06:09:55;99033.72;;;13.86;36.67
26487;BME280;14425;56.136;40.360;2023-04-22T06:12:21;99032.53;;;14.35;36.03
26487;BME280;14425;56.136;40.360;2023-04-22T06:14:46;99038.91;;;14.63;36.15
26487;BME280;14425;56.136;40.360;2023-04-22T06:17:12;99028.16;;;15.26;34.61
26487;BME280;14425;56.136;40.360;2023-04-22T06:19:37;99027.25;;;15.24;34.32
26487;BME280;14425;56.136;40.360;2023-04-22T06:22:03;99031.78;;;15.60;34.36
26487;BME280;14425;56.136;40.360;2023-04-22T06:24:29;99032.59;;;15.47;33.18
26487;BME280;14425;56.136;40.360;2023-04-22T06:26:54;99028.19;;;15.33;33.48
26487;BME280;14425;56.136;40.360;2023-04-22T06:29:22;99023.19;;;15.66;33.09
26487;BME280;14425;56.136;40.360;2023-04-22T06:31:48;99025.03;;;15.82;33.30
26487;BME280;14425;56.136;40.360;2023-04-22T06:34:13;99018.94;;;15.83;33.17
26487;BME280;14425;56.136;40.360;2023-04-22T06:36:39;99026.59;;;15.62;32.55
26487;BME280;14425;56.136;40.360;2023-04-22T06:39:05;99012.97;;;16.09;33.16
26487;BME280;14425;56.136;40.360;2023-04-22T06:41:31;99015.59;;;16.21;32.60
26487;BME280;14425;56.136;40.360;2023-04-22T06:43:57;99013.91;;;16.45;32.28
26487;BME280;14425;56.136;40.360;2023-04-22T06:46:23;99008.72;;;16.70;32.27
26487;BME280;14425;56.136;40.360;2023-04-22T06:48:49;99009.63;;;16.99;31.94
26487;BME280;14425;56.136;40.360;2023-04-22T06:51:14;99006.16;;;16.97;31.25
26487;BME280;14425;56.136;40.360;2023-04-22T06:53:40;99004.38;;;16.39;31.46
26487;BME280;14425;56.136;40.360;2023-04-22T06:56:05;98998.31;;;16.59;31.53
26487;BME280;14425;56.136;40.360;2023-04-22T06:58:31;99000.91;;;16.71;31.54
26487;BME280;14425;56.136;40.360;2023-04-22T07:00:57;98995.75;;;17.05;31.14
26487;BME280;14425;56.136;40.360;2023-04-22T07:03:22;98995.72;;;17.27;30.59
26487;BME280;14425;56.136;40.360;2023-04-22T07:05:48;98995.66;;;17.33;30.40
26487;BME280;14425;56.136;40.360;2023-04-22T07:08:14;99004.41;;;16.84;30.54
26487;BME280;14425;56.136;40.360;2023-04-22T07:10:39;98988.63;;;17.60;30.40
26487;BME280;14425;56.136;40.360;2023-04-22T07:13:05;98990.31;;;17.74;29.33
26487;BME280;14425;56.136;40.360;2023-04-22T07:15:30;98991.09;;;18.03;29.43
26487;BME280;14425;56.136;40.360;2023-04-22T07:17:56;98987.63;;;17.99;28.69
26487;BME280;14425;56.136;40.360;2023-04-22T07:20:22;98991.22;;;17.70;29.09
26487;BME280;14425;56.136;40.360;2023-04-22T07:22:47;98981.94;;;18.72;28.44
26487;BME280;14425;56.136;40.360;2023-04-22T07:25:13;98988.34;;;19.34;27.75
26487;BME280;14425;56.136;40.360;2023-04-22T07:27:38;98989.63;;;18.95;28.00
26487;BME280;14425;56.136;40.360;2023-04-22T07:30:06;98980.97;;;19.69;27.90
26487;BME280;14425;56.136;40.360;2023-04-22T07:32:32;98978.72;;;19.38;27.21
26487;BME280;14425;56.136;40.360;2023-04-22T07:34:57;98990.69;;;18.66;27.64
26487;BME280;14425;56.136;40.360;2023-04-22T07:37:23;98988.16;;;19.53;27.25
26487;BME280;14425;56.136;40.360;2023-04-22T07:39:48;98986.78;;;20.56;26.13
26487;BME280;14425;56.136;40.360;2023-04-22T07:42:14;98983.59;;;20.36;25.45
26487;BME280;14425;56.136;40.360;2023-04-22T07:44:40;98987.56;;;20.04;25.69
26487;BME280;14425;56.136;40.360;2023-04-22T07:47:06;98986.53;;;20.16;25.96
26487;BME280;14425;56.136;40.360;2023-04-22T07:49:33;98989.31;;;20.62;25.71
26487;BME280;14425;56.136;40.360;2023-04-22T07:51:58;98981.94;;;20.88;25.20
26487;BME280;14425;56.136;40.360;2023-04-22T07:54:24;98980.91;;;20.40;25.46
26487;BME280;14425;56.136;40.360;2023-04-22T07:56:49;98989.13;;;20.16;26.23
26487;BME280;14425;56.136;40.360;2023-04-22T07:59:15;98980.63;;;20.59;25.16
26487;BME280;14425;56.136;40.360;2023-04-22T08:01:41;98980.13;;;20.90;24.79
26487;BME280;14425;56.136;40.360;2023-04-22T08:04:06;98988.94;;;20.87;24.52
26487;BME280;14425;56.136;40.360;2023-04-22T08:06:33;98980.66;;;21.12;24.39
26487;BME280;14425;56.136;40.360;2023-04-22T08:08:59;98980.75;;;21.96;23.37
26487;BME280;14425;56.136;40.360;2023-04-22T08:11:24;98978.81;;;21.64;23.78
26487;BME280;14425;56.136;40.360;2023-04-22T08:13:50;98987.78;;;21.52;24.55
26487;BME280;14425;56.136;40.360;2023-04-22T08:16:16;98978.47;;;21.79;24.73
26487;BME280;14425;56.136;40.360;2023-04-22T08:18:41;98977.72;;;21.74;23.80
26487;BME280;14425;56.136;40.360;2023-04-22T08:21:07;98979.50;;;21.72;23.61
26487;BME280;14425;56.136;40.360;2023-04-22T08:23:32;98980.63;;;19.98;24.39
26487;BME280;14425;56.136;40.360;2023-04-22T08:25:58;98996.38;;;17.86;26.70
26487;BME280;14425;56.136;40.360;2023-04-22T08:28:23;98997.31;;;19.10;27.07
26487;BME280;14425;56.136;40.360;2023-04-22T08:30:49;98985.78;;;20.04;24.80
26487;BME280;14425;56.136;40.360;2023-04-22T08:33:15;98987.16;;;20.31;24.82
26487;BME280;14425;56.136;40.360;2023-04-22T08:35:41;98984.56;;;21.81;23.10
26487;BME280;14425;56.136;40.360;2023-04-22T08:38:06;98984.53;;;21.83;23.26
26487;BME280;14425;56.136;40.360;2023-04-22T08:40:33;98988.94;;;20.87;24.54
26487;BME280;14425;56.136;40.360;2023-04-22T08:42:59;98982.19;;;21.69;23.95
26487;BME280;14425;56.136;40.360;2023-04-22T08:45:25;98976.50;;;22.31;22.58
26487;BME280;14425;56.136;40.360;2023-04-22T08:47:51;98971.88;;;23.75;22.54
26487;BME280;14425;56.136;40.360;2023-04-22T08:50:19;98964.06;;;23.72;22.05
26487;BME280;14425;56.136;40.360;2023-04-22T08:52:46;98969.81;;;23.88;21.30
26487;BME280;14425;56.136;40.360;2023-04-22T08:55:12;98967.81;;;23.96;21.95
26487;BME280;14425;56.136;40.360;2023-04-22T08:57:38;98976.28;;;22.40;21.47
26487;BME280;14425;56.136;40.360;2023-04-22T09:00:05;98978.72;;;21.20;23.06
26487;BME280;14425;56.136;40.360;2023-04-22T09:02:36;98981.88;;;22.25;22.44
26487;BME280;14425;56.136;40.360;2023-04-22T09:05:04;98980.84;;;23.38;22.26
26487;BME280;14425;56.136;40.360;2023-04-22T09:07:31;98970.66;;;23.89;21.54
26487;BME280;14425;56.136;40.360;2023-04-22T09:09:57;98969.28;;;24.33;21.27
26487;BME280;14425;56.136;40.360;2023-04-22T09:12:26;98960.06;;;23.59;21.55
26487;BME280;14425;56.136;40.360;2023-04-22T09:14:53;98964.44;;;23.60;21.62
26487;BME280;14425;56.136;40.360;2023-04-22T09:17:33;98970.31;;;23.04;21.99
26487;BME280;14425;56.136;40.360;2023-04-22T09:20:01;98967.31;;;21.22;22.96
26487;BME280;14425;56.136;40.360;2023-04-22T09:22:43;98967.50;;;21.60;22.87
26487;BME280;14425;56.136;40.360;2023-04-22T09:25:19;98959.44;;;23.80;22.89
26487;BME280;14425;56.136;40.360;2023-04-22T09:27:53;98951.91;;;25.08;21.14
26487;BME280;14425;56.136;40.360;2023-04-22T09:30:37;98947.38;;;24.86;20.65
26487;BME280;14425;56.136;40.360;2023-04-22T09:33:06;98958.38;;;23.27;21.82
26487;BME280;14425;56.136;40.360;2023-04-22T09:35:36;98959.88;;;25.06;20.12
26487;BME280;14425;56.136;40.360;2023-04-22T09:38:05;98956.22;;;24.30;20.66
26487;BME280;14425;56.136;40.360;2023-04-22T09:40:32;98954.56;;;23.37;21.67
26487;BME280;14425;56.136;40.360;2023-04-22T09:43:04;98949.75;;;24.94;21.49
26487;BME280;14425;56.136;40.360;2023-04-22T09:45:48;98953.31;;;25.91;20.52
26487;BME280;14425;56.136;40.360;2023-04-22T09:48:16;98949.50;;;25.76;19.88
26487;BME280;14425;56.136;40.360;2023-04-22T09:50:46;98950.56;;;25.94;20.00
26487;BME280;14425;56.136;40.360;2023-04-22T09:53:14;98953.75;;;24.81;20.20
26487;BME280;14425;56.136;40.360;2023-04-22T09:55:42;98953.06;;;23.59;21.22
26487;BME280;14425;56.136;40.360;2023-04-22T09:58:10;98966.22;;;22.20;21.19
26487;BME280;14425;56.136;40.360;2023-04-22T10:00:43;98962.31;;;23.10;22.79
26487;BME280;14425;56.136;40.360;2023-04-22T10:03:09;98951.00;;;24.57;21.59
26487;BME280;14425;56.136;40.360;2023-04-22T10:05:35;98949.13;;;25.38;20.49
26487;BME280;14425;56.136;40.360;2023-04-22T10:08:06;98942.31;;;26.03;20.16
26487;BME280;14425;56.136;40.360;2023-04-22T10:10:32;98941.59;;;26.44;19.92
26487;BME280;14425;56.136;40.360;2023-04-22T10:12:59;98935.44;;;25.99;19.99
26487;BME280;14425;56.136;40.360;2023-04-22T10:15:25;98936.59;;;24.94;20.25
26487;BME280;14425;56.136;40.360;2023-04-22T10:17:52;98942.25;;;25.57;20.72
26487;BME280;14425;56.136;40.360;2023-04-22T10:20:19;98944.66;;;23.47;20.71
26487;BME280;14425;56.136;40.360;2023-04-22T10:22:47;98952.00;;;23.01;22.88
26487;BME280;14425;56.136;40.360;2023-04-22T10:25:25;98944.19;;;24.77;22.11
26487;BME280;14425;56.136;40.360;2023-04-22T10:28:01;98940.16;;;25.43;19.81
26487;BME280;14425;56.136;40.360;2023-04-22T10:30:29;98946.75;;;25.55;19.84
26487;BME280;14425;56.136;40.360;2023-04-22T10:32:55;98947.34;;;24.33;20.79
26487;BME280;14425;56.136;40.360;2023-04-22T10:35:30;98946.88;;;22.23;21.67
26487;BME280;14425;56.136;40.360;2023-04-22T10:37:56;98948.63;;;21.39;23.04
26487;BME280;14425;56.136;40.360;2023-04-22T10:40:21;98947.88;;;21.34;24.48
26487;BME280;14425;56.136;40.360;2023-04-22T10:42:51;98954.66;;;21.45;24.22
26487;BME280;14425;56.136;40.360;2023-04-22T10:45:23;98950.75;;;21.67;24.04
26487;BME280;14425;56.136;40.360;2023-04-22T10:47:49;98949.13;;;22.02;23.35
26487;BME280;14425;56.136;40.360;2023-04-22T10:50:25;98952.91;;;23.00;22.69
26487;BME280;14425;56.136;40.360;2023-04-22T10:53:33;98941.19;;;23.76;21.54
26487;BME280;14425;56.136;40.360;2023-04-22T10:55:51;98943.09;;;25.34;20.45
26487;BME280;14425;56.136;40.360;2023-04-22T10:58:18;98949.44;;;25.30;20.03
26487;BME280;14425;56.136;40.360;2023-04-22T11:00:44;98938.19;;;24.45;20.75
26487;BME280;14425;56.136;40.360;2023-04-22T11:03:13;98939.72;;;24.24;20.84
26487;BME280;14425;56.136;40.360;2023-04-22T11:05:41;98944.13;;;23.34;21.36
26487;BME280;14425;56.136;40.360;2023-04-22T11:10:34;98952.69;;;22.75;22.16
26487;BME280;14425;56.136;40.360;2023-04-22T11:13:05;98954.09;;;21.30;22.75
26487;BME280;14425;56.136;40.360;2023-04-22T11:15:34;98955.25;;;21.14;23.00
26487;BME280;14425;56.136;40.360;2023-04-22T11:18:00;98951.34;;;20.88;23.56
26487;BME280;14425;56.136;40.360;2023-04-22T11:20:27;98954.22;;;19.45;24.87
26487;BME280;14425;56.136;40.360;2023-04-22T11:22:55;98957.41;;;18.93;25.24
26487;BME280;14425;56.136;40.360;2023-04-22T11:25:22;98949.94;;;19.39;25.38
26487;BME280;14425;56.136;40.360;2023-04-22T11:27:48;98960.34;;;19.46;25.33
26487;BME280;14425;56.136;40.360;2023-04-22T11:30:22;98957.97;;;19.24;25.70
26487;BME280;14425;56.136;40.360;2023-04-22T11:32:53;98956.72;;;19.57;24.97
26487;BME280;14425;56.136;40.360;2023-04-22T11:35:21;98946.03;;;19.79;24.98
26487;BME280;14425;56.136;40.360;2023-04-22T11:37:57;98940.03;;;21.33;23.84
26487;BME280;14425;56.136;40.360;2023-04-22T11:40:30;98936.66;;;21.71;23.16
26487;BME280;14425;56.136;40.360;2023-04-22T11:42:57;98941.47;;;22.68;22.39
26487;BME280;14425;56.136;40.360;2023-04-22T11:45:24;98934.66;;;23.59;21.35
26487;BME280;14425;56.136;40.360;2023-04-22T11:47:50;98928.09;;;23.43;21.56
26487;BME280;14425;56.136;40.360;2023-04-22T11:50:19;98932.13;;;23.55;21.30
26487;BME280;14425;56.136;40.360;2023-04-22T11:52:53;98926.41;;;22.39;23.05
26487;BME280;14425;56.136;40.360;2023-04-22T11:55:24;98930.38;;;23.24;22.28
26487;BME280;14425;56.136;40.360;2023-04-22T11:57:58;98922.69;;;24.35;21.07
26487;BME280;14425;56.136;40.360;2023-04-22T12:00:31;98933.03;;;22.90;22.25
26487;BME280;14425;56.136;40.360;2023-04-22T12:05:35;98928.66;;;22.54;21.97
26487;BME280;14425;56.136;40.360;2023-04-22T12:08:10;98924.34;;;22.51;22.26
26487;BME280;14425;56.136;40.360;2023-04-22T12:10:48;98919.44;;;23.39;21.01
26487;BME280;14425;56.136;40.360;2023-04-22T12:13:19;98919.22;;;24.33;20.54
26487;BME280;14425;56.136;40.360;2023-04-22T12:15:48;98920.47;;;24.22;20.54
26487;BME280;14425;56.136;40.360;2023-04-22T12:18:15;98916.25;;;23.89;20.45
26487;BME280;14425;56.136;40.360;2023-04-22T12:20:41;98912.38;;;24.01;20.41
26487;BME280;14425;56.136;40.360;2023-04-22T12:23:11;98912.38;;;24.01;20.73
26487;BME280;14425;56.136;40.360;2023-04-22T12:25:38;98906.34;;;23.68;20.67
26487;BME280;14425;56.136;40.360;2023-04-22T12:28:03;98902.34;;;24.12;19.89
26487;BME280;14425;56.136;40.360;2023-04-22T12:30:31;98902.06;;;23.93;20.31
26487;BME280;14425;56.136;40.360;2023-04-22T12:32:57;98897.72;;;23.63;20.53
26487;BME280;14425;56.136;40.360;2023-04-22T12:35:23;98895.34;;;24.92;20.14
26487;BME280;14425;56.136;40.360;2023-04-22T12:37:48;98902.28;;;25.19;20.16
26487;BME280;14425;56.136;40.360;2023-04-22T12:40:14;98899.03;;;25.36;19.52
26487;BME280;14425;56.136;40.360;2023-04-22T12:42:39;98907.03;;;24.84;19.66
26487;BME280;14425;56.136;40.360;2023-04-22T12:45:06;98902.44;;;24.89;19.78
26487;BME280;14425;56.136;40.360;2023-04-22T12:47:35;98909.06;;;24.23;20.76
26487;BME280;14425;56.136;40.360;2023-04-22T12:50:00;98914.13;;;22.75;21.27
26487;BME280;14425;56.136;40.360;2023-04-22T12:52:32;98918.34;;;21.25;23.05
26487;BME280;14425;56.136;40.360;2023-04-22T12:55:01;98915.41;;;21.84;22.23